createdAt,value
2018-09-05T00:01:34.474Z,17.33
2018-09-05T00:04:02.677Z,17.33
2018-09-05T00:06:30.930Z,17.33
2018-09-05T00:08:59.241Z,17.33
2018-09-05T00:11:28.105Z,17.37
2018-09-05T00:13:56.614Z,17.29
2018-09-05T00:16:24.907Z,17.30
2018-09-05T00:18:53.245Z,17.27
2018-09-05T00:21:21.501Z,17.24
2018-09-05T00:23:49.789Z,17.15
2018-09-05T00:26:18.093Z,17.17
2018-09-05T00:28:46.382Z,17.17
2018-09-05T00:31:14.762Z,17.18
2018-09-05T00:33:43.057Z,17.19
2018-09-05T00:36:11.329Z,17.12
2018-09-05T00:38:39.701Z,17.09
2018-09-05T00:41:07.962Z,17.00
2018-09-05T00:43:36.222Z,16.98
2018-09-05T00:46:04.489Z,16.88
2018-09-05T00:48:32.769Z,16.84
2018-09-05T00:51:01.085Z,16.80
2018-09-05T00:53:30.221Z,16.87
2018-09-05T00:55:58.506Z,16.98
2018-09-05T00:58:26.771Z,16.83
2018-09-05T01:00:55.078Z,16.64
2018-09-05T01:03:23.314Z,16.56
2018-09-05T01:05:51.767Z,16.57
2018-09-05T01:08:20.019Z,16.49
2018-09-05T01:10:48.294Z,16.50
2018-09-05T01:13:16.597Z,16.39
2018-09-05T01:15:44.876Z,16.27
2018-09-05T01:18:13.208Z,16.31
2018-09-05T01:20:41.440Z,16.43
2018-09-05T01:23:09.738Z,16.39
2018-09-05T01:25:59.304Z,16.34
2018-09-05T01:28:27.958Z,16.34
2018-09-05T01:30:56.193Z,16.39
2018-09-05T01:33:24.385Z,16.46
2018-09-05T01:35:56.749Z,16.44
2018-09-05T01:38:24.961Z,16.34
2018-09-05T01:40:53.288Z,16.16
2018-09-05T01:43:21.536Z,16.18
2018-09-05T01:45:50.781Z,16.18
2018-09-05T01:48:19.033Z,16.24
2018-09-05T01:50:47.337Z,16.21
2018-09-05T01:53:15.609Z,16.17
2018-09-05T01:55:43.833Z,16.22
2018-09-05T01:58:12.129Z,16.19
2018-09-05T02:00:40.377Z,16.12
2018-09-05T02:03:08.670Z,16.17
2018-09-05T02:05:36.965Z,16.13
2018-09-05T02:08:05.258Z,16.02
2018-09-05T02:10:33.553Z,15.97
2018-09-05T02:13:02.217Z,15.93
2018-09-05T02:15:30.609Z,15.85
2018-09-05T02:17:58.855Z,15.87
2018-09-05T02:20:27.125Z,15.88
2018-09-05T02:22:55.301Z,15.96
2018-09-05T02:25:23.519Z,16.12
2018-09-05T02:27:51.781Z,16.12
2018-09-05T02:30:20.114Z,15.92
2018-09-05T02:32:48.357Z,15.87
2018-09-05T02:35:16.626Z,15.84
2018-09-05T02:37:44.969Z,15.81
2018-09-05T02:40:13.269Z,15.73
2018-09-05T02:42:41.511Z,15.69
2018-09-05T02:45:09.789Z,15.68
2018-09-05T02:47:37.969Z,15.77
2018-09-05T02:50:06.306Z,15.73
2018-09-05T02:52:35.396Z,15.60
2018-09-05T02:55:03.610Z,15.75
2018-09-05T02:57:31.816Z,15.68
2018-09-05T03:00:00.042Z,15.54
2018-09-05T03:02:28.222Z,15.61
2018-09-05T03:04:56.413Z,15.62
2018-09-05T03:07:24.598Z,15.57
2018-09-05T03:09:52.801Z,15.54
2018-09-05T03:12:22.078Z,15.54
2018-09-05T03:14:51.470Z,15.68
2018-09-05T03:17:19.977Z,15.61
2018-09-05T03:19:48.326Z,15.71
2018-09-05T03:22:16.551Z,15.74
2018-09-05T03:24:44.741Z,15.60
2018-09-05T03:27:12.938Z,15.67
2018-09-05T03:29:41.150Z,15.65
2018-09-05T03:32:09.347Z,15.50
2018-09-05T03:34:37.793Z,15.43
2018-09-05T03:37:06.054Z,15.43
2018-09-05T03:39:34.302Z,15.37
2018-09-05T03:42:02.601Z,15.35
2018-09-05T03:44:30.786Z,15.52
2018-09-05T03:46:58.989Z,15.54
2018-09-05T03:49:27.247Z,15.53
2018-09-05T03:51:55.529Z,15.52
2018-09-05T03:54:23.713Z,15.55
2018-09-05T03:56:51.910Z,15.51
2018-09-05T03:59:20.162Z,15.45
2018-09-05T04:01:48.334Z,15.57
2018-09-05T04:04:16.535Z,15.53
2018-09-05T04:06:44.745Z,15.37
2018-09-05T04:09:13.287Z,15.37
2018-09-05T04:11:41.551Z,15.49
2018-09-05T04:14:09.853Z,15.36
2018-09-05T04:16:38.129Z,15.32
2018-09-05T04:19:06.482Z,15.35
2018-09-05T04:21:34.814Z,15.38
2018-09-05T04:24:03.081Z,15.38
2018-09-05T04:26:31.374Z,15.40
2018-09-05T04:28:59.782Z,15.25
2018-09-05T04:31:27.993Z,15.28
2018-09-05T04:33:58.345Z,15.18
2018-09-05T04:36:26.562Z,15.21
2018-09-05T04:38:54.790Z,15.26
2018-09-05T04:41:22.967Z,15.25
2018-09-05T04:43:51.537Z,15.29
2018-09-05T04:46:19.745Z,15.32
2018-09-05T04:48:48.057Z,15.28
2018-09-05T04:51:16.277Z,15.19
2018-09-05T04:53:44.459Z,15.24
2018-09-05T04:56:12.715Z,15.34
2018-09-05T04:58:40.919Z,15.35
2018-09-05T05:01:09.127Z,15.39
2018-09-05T05:03:37.317Z,15.47
2018-09-05T05:06:05.773Z,15.52
2018-09-05T05:08:33.966Z,15.46
2018-09-05T05:11:02.175Z,15.42
2018-09-05T05:13:30.375Z,15.46
2018-09-05T05:15:58.613Z,15.43
2018-09-05T05:18:26.817Z,15.50
2018-09-05T05:20:55.041Z,15.55
2018-09-05T05:23:23.228Z,15.59
2018-09-05T05:25:51.441Z,15.64
2018-09-05T05:28:19.667Z,15.66
2018-09-05T05:30:48.010Z,15.71
2018-09-05T05:33:16.197Z,15.80
2018-09-05T05:35:44.441Z,15.85
2018-09-05T05:38:12.678Z,15.89
2018-09-05T05:40:40.970Z,15.97
2018-09-05T05:43:09.178Z,15.98
2018-09-05T05:45:37.386Z,16.09
2018-09-05T05:48:05.594Z,16.12
2018-09-05T05:50:33.830Z,16.07
2018-09-05T05:53:02.041Z,16.11
2018-09-05T05:55:30.237Z,16.19
2018-09-05T05:57:58.429Z,16.31
2018-09-05T06:00:26.682Z,16.35
2018-09-05T06:02:55.945Z,16.32
2018-09-05T06:05:24.175Z,16.32
2018-09-05T06:07:52.459Z,16.40
2018-09-05T06:10:24.918Z,16.35
2018-09-05T06:12:53.601Z,16.32
2018-09-05T06:15:21.803Z,16.41
2018-09-05T06:17:50.032Z,16.47
2018-09-05T06:20:18.246Z,16.58
2018-09-05T06:22:46.678Z,16.60
2018-09-05T06:25:14.857Z,16.71
2018-09-05T06:27:43.151Z,16.79
2018-09-05T06:30:11.330Z,16.70
2018-09-05T06:32:39.509Z,16.80
2018-09-05T06:35:07.781Z,16.88
2018-09-05T06:37:36.061Z,16.83
2018-09-05T06:40:04.335Z,17.05
2018-09-05T06:42:32.515Z,17.21
2018-09-05T06:45:00.801Z,17.25
2018-09-05T06:47:28.910Z,17.31
2018-09-05T06:49:57.110Z,17.35
2018-09-05T06:52:25.351Z,17.49
2018-09-05T06:54:53.569Z,17.50
2018-09-05T06:57:21.807Z,17.44
2018-09-05T06:59:49.989Z,17.62
2018-09-05T07:02:18.226Z,17.64
2018-09-05T07:04:46.449Z,17.64
2018-09-05T07:07:14.653Z,17.80
2018-09-05T07:09:42.838Z,17.79
2018-09-05T07:12:11.028Z,17.77
2018-09-05T07:14:39.341Z,17.81
2018-09-05T07:17:07.535Z,17.83
2018-09-05T07:19:35.739Z,17.75
2018-09-05T07:22:03.961Z,17.92
2018-09-05T07:24:32.154Z,18.10
2018-09-05T07:27:00.416Z,18.15
2018-09-05T07:29:28.601Z,18.23
2018-09-05T07:31:56.798Z,18.19
2018-09-05T07:34:24.977Z,18.10
2018-09-05T07:36:53.169Z,18.32
2018-09-05T07:39:21.362Z,18.39
2018-09-05T07:41:49.554Z,18.55
2018-09-05T07:44:17.741Z,18.53
2018-09-05T07:46:45.938Z,18.60
2018-09-05T07:49:14.148Z,18.70
2018-09-05T07:51:42.346Z,18.84
2018-09-05T07:54:10.589Z,18.93
2018-09-05T07:56:38.837Z,18.93
2018-09-05T07:59:07.081Z,19.00
2018-09-05T08:01:35.333Z,19.21
2018-09-05T08:04:03.542Z,19.13
2018-09-05T08:06:31.746Z,19.22
2018-09-05T08:08:59.941Z,19.51
2018-09-05T08:11:28.137Z,19.42
2018-09-05T08:13:56.327Z,19.42
2018-09-05T08:16:24.538Z,19.69
2018-09-05T08:18:52.766Z,19.64
2018-09-05T08:21:20.957Z,19.61
2018-09-05T08:23:49.143Z,19.71
2018-09-05T08:26:17.325Z,19.82
2018-09-05T08:28:45.618Z,20.00
2018-09-05T08:31:13.793Z,20.02
2018-09-05T08:33:41.991Z,20.16
2018-09-05T08:36:10.475Z,20.31
2018-09-05T08:38:39.335Z,20.44
2018-09-05T08:41:09.808Z,20.43
2018-09-05T08:43:38.755Z,20.46
2018-09-05T08:46:07.148Z,20.58
2018-09-05T08:48:35.360Z,20.54
2018-09-05T08:51:03.793Z,20.55
2018-09-05T08:53:32.018Z,20.66
2018-09-05T08:56:00.301Z,20.70
2018-09-05T08:58:28.557Z,20.93
2018-09-05T09:00:56.800Z,21.12
2018-09-05T09:03:25.012Z,21.33
2018-09-05T09:05:53.482Z,21.41
2018-09-05T09:08:21.674Z,21.31
2018-09-05T09:10:49.901Z,21.26
2018-09-05T09:13:18.168Z,21.49
2018-09-05T09:15:50.054Z,21.57
2018-09-05T09:18:19.501Z,21.62
2018-09-05T09:20:47.890Z,21.76
2018-09-05T09:23:16.223Z,21.91
2018-09-05T09:25:44.482Z,22.06
2018-09-05T09:28:12.785Z,22.06
2018-09-05T09:30:40.949Z,22.24
2018-09-05T09:33:09.570Z,22.14
2018-09-05T09:35:37.858Z,22.36
2018-09-05T09:38:06.086Z,22.59
2018-09-05T09:40:34.399Z,22.30
2018-09-05T09:43:02.641Z,22.53
2018-09-05T09:45:30.978Z,23.01
2018-09-05T09:47:59.237Z,23.12
2018-09-05T09:50:27.490Z,22.71
2018-09-05T09:52:55.807Z,22.80
2018-09-05T09:55:24.017Z,22.99
2018-09-05T09:57:52.268Z,22.91
2018-09-05T10:00:25.859Z,23.21
2018-09-05T10:02:59.430Z,23.21
2018-09-05T10:05:32.945Z,22.86
2018-09-05T10:08:06.420Z,23.13
2018-09-05T10:10:40.102Z,23.30
2018-09-05T10:13:17.562Z,23.45
2018-09-05T10:15:51.258Z,23.75
2018-09-05T10:18:25.070Z,23.68
2018-09-05T10:20:53.477Z,23.29
2018-09-05T10:23:21.733Z,23.50
2018-09-05T10:25:50.059Z,23.77
2018-09-05T10:28:18.330Z,23.84
2018-09-05T10:30:46.909Z,23.97
2018-09-05T10:33:15.355Z,23.97
2018-09-05T10:35:43.573Z,24.18
2018-09-05T10:38:11.875Z,24.12
2018-09-05T10:40:40.262Z,24.32
2018-09-05T10:43:08.493Z,24.37
2018-09-05T10:45:36.728Z,24.36
2018-09-05T10:48:05.067Z,24.46
2018-09-05T10:50:33.498Z,24.58
2018-09-05T10:53:01.675Z,24.64
2018-09-05T10:55:29.937Z,24.68
2018-09-05T10:57:58.223Z,24.59
2018-09-05T11:00:26.388Z,24.62
2018-09-05T11:02:54.599Z,24.64
2018-09-05T11:05:22.821Z,24.78
2018-09-05T11:07:51.009Z,24.76
2018-09-05T11:10:19.220Z,24.69
2018-09-05T11:12:47.416Z,24.55
2018-09-05T11:15:15.618Z,24.84
2018-09-05T11:17:43.809Z,24.83
2018-09-05T11:20:12.658Z,24.94
2018-09-05T11:22:41.436Z,25.08
2018-09-05T11:25:09.633Z,24.78
2018-09-05T11:27:37.895Z,25.15
2018-09-05T11:30:06.210Z,25.21
2018-09-05T11:32:34.452Z,25.21
2018-09-05T11:35:02.745Z,25.35
2018-09-05T11:37:31.700Z,25.27
2018-09-05T11:39:59.929Z,25.14
2018-09-05T11:42:28.185Z,25.20
2018-09-05T11:44:56.404Z,25.13
2018-09-05T11:47:24.618Z,25.30
2018-09-05T11:49:52.847Z,25.23
2018-09-05T11:52:21.045Z,25.16
2018-09-05T11:54:49.228Z,25.27
2018-09-05T11:57:17.576Z,25.22
2018-09-05T11:59:45.709Z,25.52
2018-09-05T12:02:14.247Z,25.41
2018-09-05T12:04:42.405Z,25.41
2018-09-05T12:07:11.059Z,25.26
2018-09-05T12:09:39.261Z,25.58
2018-09-05T12:12:07.526Z,25.55
2018-09-05T12:14:35.678Z,25.68
2018-09-05T12:17:03.886Z,25.54
2018-09-05T12:19:32.098Z,25.35
2018-09-05T12:22:00.318Z,25.51
2018-09-05T12:24:28.501Z,25.54
2018-09-05T12:26:56.698Z,25.58
2018-09-05T12:29:25.069Z,25.32
2018-09-05T12:31:53.271Z,25.53
2018-09-05T12:34:21.492Z,25.69
2018-09-05T12:36:49.665Z,25.75
2018-09-05T12:39:17.913Z,25.70
2018-09-05T12:41:46.146Z,25.83
2018-09-05T12:44:14.362Z,25.80
2018-09-05T12:46:42.533Z,25.80
2018-09-05T12:49:10.717Z,25.93
2018-09-05T12:51:38.955Z,25.90
2018-09-05T12:54:07.590Z,25.87
2018-09-05T12:56:35.777Z,25.90
2018-09-05T12:59:03.986Z,25.99
2018-09-05T13:01:32.262Z,26.05
2018-09-05T13:04:00.479Z,26.31
2018-09-05T13:06:28.656Z,26.16
2018-09-05T13:08:56.873Z,26.13
2018-09-05T13:11:25.153Z,26.17
2018-09-05T13:13:53.288Z,26.05
2018-09-05T13:16:21.514Z,26.10
2018-09-05T13:18:49.743Z,26.21
2018-09-05T13:21:17.943Z,26.37
2018-09-05T13:23:46.117Z,26.36
2018-09-05T13:26:14.334Z,26.44
2018-09-05T13:28:42.522Z,26.58
2018-09-05T13:31:10.713Z,26.53
2018-09-05T13:33:38.896Z,26.54
2018-09-05T13:36:07.113Z,26.58
2018-09-05T13:38:35.306Z,26.69
2018-09-05T13:41:03.530Z,26.36
2018-09-05T13:43:31.730Z,26.27
2018-09-05T13:45:59.898Z,26.21
2018-09-05T13:48:28.109Z,26.40
2018-09-05T13:50:56.318Z,26.63
2018-09-05T13:53:24.503Z,26.60
2018-09-05T13:55:52.685Z,26.80
2018-09-05T13:58:20.878Z,26.96
2018-09-05T14:00:49.122Z,26.82
2018-09-05T14:03:17.306Z,26.69
2018-09-05T14:05:45.508Z,26.56
2018-09-05T14:08:14.025Z,26.70
2018-09-05T14:10:42.230Z,26.51
2018-09-05T14:13:10.418Z,26.46
2018-09-05T14:15:38.621Z,26.40
2018-09-05T14:18:06.818Z,26.51
2018-09-05T14:20:35.027Z,26.45
2018-09-05T14:23:03.195Z,26.53
2018-09-05T14:25:31.420Z,26.59
2018-09-05T14:27:59.629Z,26.79
2018-09-05T14:30:27.840Z,26.87
2018-09-05T14:32:56.063Z,26.92
2018-09-05T14:35:24.249Z,26.63
2018-09-05T14:37:52.434Z,26.41
2018-09-05T14:40:20.642Z,26.24
2018-09-05T14:42:48.837Z,26.04
2018-09-05T14:45:17.017Z,25.85
2018-09-05T14:47:45.217Z,25.97
2018-09-05T14:50:13.403Z,25.89
2018-09-05T14:52:41.626Z,26.23
2018-09-05T14:55:09.830Z,26.49
2018-09-05T14:57:38.032Z,26.44
2018-09-05T15:00:06.362Z,26.40
2018-09-05T15:02:34.574Z,26.39
2018-09-05T15:05:02.798Z,26.45
2018-09-05T15:07:31.019Z,26.43
2018-09-05T15:09:59.215Z,26.66
2018-09-05T15:12:27.441Z,26.65
2018-09-05T15:14:56.405Z,26.90
2018-09-05T15:17:27.020Z,27.08
2018-09-05T15:19:55.218Z,26.93
2018-09-05T15:22:23.613Z,27.10
2018-09-05T15:24:51.814Z,27.01
2018-09-05T15:27:20.051Z,26.88
2018-09-05T15:29:48.245Z,27.09
2018-09-05T15:32:16.438Z,27.19
2018-09-05T15:34:44.637Z,27.13
2018-09-05T15:37:12.818Z,26.74
2018-09-05T15:42:39.865Z,26.38
2018-09-05T15:45:08.086Z,26.63
2018-09-05T15:47:36.274Z,26.56
2018-09-05T15:50:04.574Z,26.76
2018-09-05T15:52:32.732Z,26.79
2018-09-05T15:55:00.949Z,26.72
2018-09-05T15:57:29.224Z,26.56
2018-09-05T15:59:57.394Z,26.39
2018-09-05T16:02:25.683Z,26.27
2018-09-05T16:04:53.973Z,26.32
2018-09-05T16:07:22.209Z,26.22
2018-09-05T16:09:50.466Z,26.08
2018-09-05T16:12:18.657Z,25.97
2018-09-05T16:14:47.332Z,26.06
2018-09-05T16:17:15.533Z,26.05
2018-09-05T16:19:43.745Z,26.02
2018-09-05T16:22:11.950Z,25.98
2018-09-05T16:24:40.141Z,25.85
2018-09-05T16:27:08.377Z,25.76
2018-09-05T16:29:36.598Z,25.70
2018-09-05T16:32:04.799Z,25.57
2018-09-05T16:34:33.013Z,25.57
2018-09-05T16:37:01.210Z,25.63
2018-09-05T16:39:29.485Z,25.63
2018-09-05T16:41:57.873Z,25.55
2018-09-05T16:44:26.081Z,25.46
2018-09-05T16:46:54.299Z,25.24
2018-09-05T16:49:22.489Z,25.25
2018-09-05T16:51:50.693Z,25.20
2018-09-05T16:54:18.916Z,25.21
2018-09-05T16:56:47.133Z,25.25
2018-09-05T16:59:15.333Z,25.10
2018-09-05T17:01:43.581Z,25.03
2018-09-05T17:04:11.788Z,25.01
2018-09-05T17:06:40.009Z,24.93
2018-09-05T17:09:10.346Z,24.74
2018-09-05T17:11:38.578Z,24.72
2018-09-05T17:14:06.849Z,24.65
2018-09-05T17:16:35.082Z,24.65
2018-09-05T17:19:03.742Z,24.69
2018-09-05T17:21:32.213Z,24.56
2018-09-05T17:24:00.562Z,24.55
2018-09-05T17:26:28.794Z,24.54
2018-09-05T17:28:57.139Z,24.28
2018-09-05T17:31:25.437Z,24.32
2018-09-05T17:33:53.697Z,24.22
2018-09-05T17:36:22.089Z,24.04
2018-09-05T17:38:50.394Z,23.90
2018-09-05T17:41:18.619Z,23.74
2018-09-05T17:43:46.831Z,23.57
2018-09-05T17:46:15.102Z,23.46
2018-09-05T17:48:43.369Z,23.31
2018-09-05T17:51:11.554Z,23.22
2018-09-05T17:53:39.814Z,23.06
2018-09-05T17:56:07.961Z,22.98
2018-09-05T17:58:36.249Z,22.96
2018-09-05T18:01:05.776Z,22.91
2018-09-05T18:03:34.004Z,22.81
2018-09-05T18:06:02.224Z,22.64
2018-09-05T18:08:30.410Z,22.57
2018-09-05T18:10:59.570Z,22.51
2018-09-05T18:13:27.738Z,22.45
2018-09-05T18:15:55.969Z,22.52
2018-09-05T18:18:24.165Z,22.47
2018-09-05T18:20:52.379Z,22.31
2018-09-05T18:23:20.563Z,22.25
2018-09-05T18:25:48.824Z,22.19
2018-09-05T18:28:17.090Z,22.14
2018-09-05T18:30:45.265Z,22.06
2018-09-05T18:33:13.466Z,22.08
2018-09-05T18:35:41.730Z,22.14
2018-09-05T18:38:09.977Z,22.13
2018-09-05T18:40:38.190Z,22.11
2018-09-05T18:43:06.900Z,22.07
2018-09-05T18:45:35.158Z,22.00
2018-09-05T18:48:03.473Z,21.96
2018-09-05T18:50:31.738Z,21.97
2018-09-05T18:53:05.629Z,22.02
2018-09-05T18:55:33.982Z,22.04
2018-09-05T18:58:02.420Z,22.06
2018-09-05T19:00:30.752Z,22.02
2018-09-05T19:02:59.015Z,21.94
2018-09-05T19:05:27.345Z,21.68
2018-09-05T19:10:22.946Z,21.43
2018-09-05T19:12:51.421Z,21.47
2018-09-05T19:15:19.642Z,21.45
2018-09-05T19:17:47.888Z,21.45
2018-09-05T19:20:16.265Z,21.36
2018-09-05T19:22:44.548Z,21.24
2018-09-05T19:25:12.870Z,21.25
2018-09-05T19:27:41.146Z,21.26
2018-09-05T19:30:09.435Z,21.21
2018-09-05T19:32:37.953Z,21.12
2018-09-05T19:35:06.274Z,21.07
2018-09-05T19:37:35.052Z,21.00
2018-09-05T19:40:03.436Z,21.04
2018-09-05T19:42:31.778Z,21.18
2018-09-05T19:45:00.082Z,21.10
2018-09-05T19:47:28.337Z,21.06
2018-09-05T19:49:56.786Z,21.02
2018-09-05T19:52:25.161Z,20.99
2018-09-05T19:54:53.429Z,20.91
2018-09-05T19:57:21.803Z,20.92
2018-09-05T19:59:50.133Z,20.98
2018-09-05T20:02:18.789Z,21.01
2018-09-05T20:04:47.081Z,20.98
2018-09-05T20:07:15.261Z,20.96
2018-09-05T20:09:43.445Z,20.93
2018-09-05T20:12:11.643Z,20.89
2018-09-05T20:14:39.901Z,20.87
2018-09-05T20:17:08.029Z,20.83
2018-09-05T20:19:36.429Z,20.77
2018-09-05T20:22:04.881Z,20.78
2018-09-05T20:24:33.161Z,20.85
2018-09-05T20:27:01.345Z,20.81
2018-09-05T20:29:29.540Z,20.75
2018-09-05T20:31:57.865Z,20.70
2018-09-05T20:34:26.062Z,20.69
2018-09-05T20:36:54.269Z,20.66
2018-09-05T20:39:22.466Z,20.63
2018-09-05T20:41:50.665Z,20.68
2018-09-05T20:44:18.859Z,20.68
2018-09-05T20:46:47.062Z,20.64
2018-09-05T20:49:15.279Z,20.63
2018-09-05T20:51:43.537Z,20.63
2018-09-05T20:54:11.863Z,20.60
2018-09-05T20:56:40.117Z,20.61
2018-09-05T20:59:08.409Z,20.55
2018-09-05T21:01:36.697Z,20.53
2018-09-05T21:04:04.989Z,20.55
2018-09-05T21:06:33.511Z,20.45
2018-09-05T21:09:01.761Z,20.56
2018-09-05T21:11:30.054Z,20.47
2018-09-05T21:13:58.354Z,20.44
2018-09-05T21:16:26.666Z,20.40
2018-09-05T21:18:54.926Z,20.49
2018-09-05T21:21:23.210Z,20.51
2018-09-05T21:23:51.519Z,20.34
2018-09-05T21:26:19.792Z,20.18
2018-09-05T21:28:48.061Z,20.24
2018-09-05T21:31:16.793Z,20.16
2018-09-05T21:33:45.054Z,20.28
2018-09-05T21:36:13.361Z,20.08
2018-09-05T21:38:41.697Z,20.00
2018-09-05T21:41:09.910Z,19.90
2018-09-05T21:43:38.137Z,19.79
2018-09-05T21:46:06.629Z,19.75
2018-09-05T21:48:34.906Z,19.74
2018-09-05T21:51:03.181Z,19.72
2018-09-05T21:53:31.449Z,19.70
2018-09-05T21:55:59.674Z,19.67
2018-09-05T21:58:27.937Z,19.68
2018-09-05T22:00:56.229Z,19.69
2018-09-05T22:03:25.213Z,19.64
2018-09-05T22:05:53.497Z,19.66
2018-09-05T22:08:21.705Z,19.64
2018-09-05T22:10:50.065Z,19.45
2018-09-05T22:13:18.321Z,19.50
2018-09-05T22:15:47.684Z,19.43
2018-09-05T22:18:16.801Z,19.48
2018-09-05T22:20:45.021Z,19.48
2018-09-05T22:23:13.313Z,19.47
2018-09-05T22:25:41.574Z,19.52
2018-09-05T22:28:09.885Z,19.47
2018-09-05T22:30:38.162Z,19.45
2018-09-05T22:33:06.692Z,19.37
2018-09-05T22:35:34.889Z,19.52
2018-09-05T22:38:03.113Z,19.50
2018-09-05T22:40:35.473Z,19.38
2018-09-05T22:43:15.066Z,19.18
2018-09-05T22:45:54.592Z,19.10
2018-09-05T22:48:42.497Z,19.02
2018-09-05T22:51:35.534Z,18.98
2018-09-05T22:54:18.425Z,18.84
2018-09-05T22:57:08.047Z,18.80
2018-09-05T22:59:47.695Z,18.81
2018-09-05T23:04:35.742Z,18.75
2018-09-05T23:07:20.551Z,18.68
2018-09-05T23:09:59.950Z,18.65
2018-09-05T23:12:39.340Z,18.59
2018-09-05T23:15:18.836Z,18.60
2018-09-05T23:20:02.819Z,18.57
2018-09-05T23:23:45.114Z,18.53
2018-09-05T23:26:13.370Z,18.40
2018-09-05T23:28:41.614Z,18.39
2018-09-05T23:31:09.964Z,18.38
2018-09-05T23:33:38.199Z,18.39
2018-09-05T23:36:06.552Z,18.40
2018-09-05T23:38:34.778Z,18.39
2018-09-05T23:41:03.111Z,18.39
2018-09-05T23:43:31.352Z,18.34
2018-09-05T23:45:59.638Z,18.25
2018-09-05T23:48:27.918Z,18.33
2018-09-05T23:50:56.422Z,18.43
2018-09-05T23:53:24.996Z,18.29
2018-09-05T23:55:53.202Z,18.25
2018-09-05T23:58:21.781Z,18.19
